Steamboat, Nevada
Current Conditions -  °F | °C
As of 6:55 PM on Monday 22 Dec 2014 (Local Time) from KRNO Reporting Station
Few Clouds Few Clouds  
Wind Chill: 50°   Ceiling: Unl
Heat Index: 50°   Visibility: 10mi
Dew Point: 37°   Wind: 3mph
Humidity: 61%   Direction: 330°NNW
Pressure: 30.3"   Gusts: NA
Location:  39.3905°N, 119.807°W
Report Text: KRNO 230255Z 33003KT 10SM FEW050 10/03 A3030 RMK AO2 SLP256 T01000028 53000
Loading
Personal Weather Stations






























Interactive Weather Map New forecast layout! Learn more

10-Day Weather Forecast

Advertisements
Track Severe Weather on mobile